NZQN/ZQN METAR and TAF weather

Enter ICAO airport designator
Station Type Date Time Source
NZQN METAR UTC NOAA

Error!


Station Type Date Time Source
NZQN Decoded METAR UTC NOAA

Error!

Station Type Date Time Source
NZQN TAF 2019/12/08 17:01 UTC NOAA

TAF NZQN 081602Z 0817/0911 24008KT 9999 SCT060
BECMG 0902/0904 18015KT

Example: see airport list